Time;durP1;ratioP1;P1;durP2;ratioP2;P2;SDS_P1;SDS_P2;PMS_P1;PMS_P2;Temp;Humidity;BMP_temperature;BMP_pressure;BME280_temperature;BME280_humidity;BME280_pressure;Samples;Min_cycle;Max_cycle;Signal;HPM_P1;HPM_P2
2023/02/16 00:01:36;;;;;;;27.70;16.65;;;;;;;3.26;85.45;99096.47;4162242;28;20293;-93
2023/02/16 00:03:40;;;;;;;22.38;15.68;;;;;;;3.27;86.07;99094.72;4157931;28;20253;-93
2023/02/16 00:05:43;;;;;;;32.83;19.98;;;;;;;3.23;85.97;99101.72;4146415;28;20297;-93
2023/02/16 00:07:46;;;;;;;32.47;20.45;;;;;;;3.23;85.73;99096.56;4128325;28;20220;-93
2023/02/16 00:09:49;;;;;;;27.05;17.95;;;;;;;3.18;85.72;99095.81;4136252;28;20227;-94
2023/02/16 00:14:14;;;;;;;21.58;14.82;;;;;;;3.15;85.50;99099.31;4138797;28;20246;-93
2023/02/16 00:16:18;;;;;;;37.05;22.17;;;;;;;3.15;85.21;99099.31;4133938;28;20215;-94
2023/02/16 00:18:22;;;;;;;27.33;18.70;;;;;;;3.12;85.35;99109.69;4130582;28;20246;-94
2023/02/16 00:20:26;;;;;;;28.83;17.75;;;;;;;3.07;85.79;99110.69;4159869;28;20242;-93
2023/02/16 00:22:30;;;;;;;26.25;16.60;;;;;;;3.03;85.82;99094.44;4142846;28;20587;-93
2023/02/16 00:24:33;;;;;;;25.27;16.02;;;;;;;3.03;85.73;99109.06;4129254;28;20209;-94
2023/02/16 00:26:36;;;;;;;22.75;14.95;;;;;;;2.98;85.59;99103.16;4127189;28;20563;-93
2023/02/16 00:28:39;;;;;;;24.02;17.55;;;;;;;3.01;85.46;99110.81;4145239;28;20228;-93
2023/02/16 00:30:42;;;;;;;22.58;14.68;;;;;;;2.95;85.77;99105.81;4145435;28;20216;-93
2023/02/16 00:32:46;;;;;;;21.58;14.63;;;;;;;2.95;85.37;99106.66;4128228;28;20298;-93
2023/02/16 00:34:50;;;;;;;18.42;14.18;;;;;;;2.95;85.27;99105.81;4142314;28;20199;-94
2023/02/16 00:36:53;;;;;;;21.05;14.25;;;;;;;2.92;85.39;99108.44;4144503;28;20631;-93
2023/02/16 00:38:57;;;;;;;22.30;14.10;;;;;;;2.90;85.38;99107.63;4158425;28;20198;-92
2023/02/16 00:41:00;;;;;;;18.75;13.70;;;;;;;2.86;85.81;99111.16;4138913;28;20263;-93
2023/02/16 00:43:04;;;;;;;18.05;13.45;;;;;;;2.83;85.56;99106.91;4159062;28;20402;-93
2023/02/16 00:45:16;;;;;;;19.38;13.38;;;;;;;2.78;85.07;99107.88;4153185;28;20586;-93
2023/02/16 00:47:21;;;;;;;18.10;12.55;;;;;;;2.77;84.71;99100.19;4140421;28;20226;-93
2023/02/16 00:49:25;;;;;;;21.83;14.30;;;;;;;2.74;85.07;99102.84;4155035;28;20237;-92
2023/02/16 00:51:29;;;;;;;17.95;13.48;;;;;;;2.72;85.48;99109.75;4136986;28;20227;-93
2023/02/16 00:53:32;;;;;;;22.20;14.10;;;;;;;2.71;85.83;99111.50;4141742;28;20277;-94
2023/02/16 00:55:36;;;;;;;20.42;14.40;;;;;;;2.69;85.46;99105.53;4156213;28;20207;-93
2023/02/16 00:57:42;;;;;;;18.98;13.90;;;;;;;2.67;85.43;99117.56;4143843;28;20230;-93
2023/02/16 00:59:45;;;;;;;24.55;15.55;;;;;;;2.69;85.63;99110.69;4142213;28;20750;-94
2023/02/16 01:01:49;;;;;;;20.33;13.65;;;;;;;2.69;85.78;99117.53;4124735;28;20200;-94
2023/02/16 01:03:53;;;;;;;18.60;13.68;;;;;;;2.66;85.70;99113.31;4129205;28;20231;-94
2023/02/16 01:13:01;;;;;;;20.60;13.18;;;;;;;2.57;86.14;99117.78;4146322;28;20222;-93
2023/02/16 01:15:06;;;;;;;18.40;12.93;;;;;;;2.54;86.06;99116.16;4142056;28;20266;-94
2023/02/16 01:17:10;;;;;;;18.63;13.98;;;;;;;2.49;86.29;99117.94;4142106;28;20206;-92
2023/02/16 01:19:14;;;;;;;20.20;13.30;;;;;;;2.42;85.67;99113.81;4140516;28;20242;-95
2023/02/16 01:21:17;;;;;;;19.48;13.50;;;;;;;2.38;85.54;99112.16;4141232;28;20670;-95
2023/02/16 01:23:21;;;;;;;20.60;13.25;;;;;;;2.36;85.91;99116.50;4158422;28;20629;-93
2023/02/16 01:25:24;;;;;;;20.25;13.43;;;;;;;2.33;85.59;99109.72;4142947;28;20207;-93
2023/02/16 01:27:37;;;;;;;18.13;13.57;;;;;;;2.36;85.73;99116.50;4125230;28;20642;-94
2023/02/16 01:29:43;;;;;;;21.33;13.82;;;;;;;2.36;85.60;99115.66;4142397;28;20235;-94
2023/02/16 01:31:47;;;;;;;20.63;13.98;;;;;;;2.33;85.42;99108.84;4145244;28;20214;-94
2023/02/16 01:33:50;;;;;;;18.90;14.32;;;;;;;2.33;85.36;99111.44;4128427;28;20258;-91
2023/02/16 01:35:55;;;;;;;24.88;14.95;;;;;;;2.31;85.96;99107.19;4155758;28;20210;-94
2023/02/16 01:37:58;;;;;;;19.23;12.80;;;;;;;2.35;86.42;99111.41;4144888;28;20222;-94
2023/02/16 01:40:04;;;;;;;19.08;13.82;;;;;;;2.35;86.36;99101.09;4152321;28;20235;-95
2023/02/16 01:42:17;;;;;;;20.85;13.15;;;;;;;2.33;85.06;99103.72;4157940;28;20206;-93
2023/02/16 01:44:23;;;;;;;20.05;13.07;;;;;;;2.39;85.39;99106.16;4144698;28;20246;-93
2023/02/16 01:46:33;;;;;;;21.02;13.80;;;;;;;2.42;85.94;99110.38;4142246;28;20203;-93
2023/02/16 01:48:36;;;;;;;24.83;14.38;;;;;;;2.46;86.39;99104.31;4144314;28;20211;-94
2023/02/16 01:50:43;;;;;;;23.83;15.50;;;;;;;2.45;86.96;99100.88;4128711;28;20688;-93
2023/02/16 01:52:53;;;;;;;19.48;12.80;;;;;;;2.41;86.51;99090.69;4158983;28;20202;-93
2023/02/16 01:54:59;;;;;;;21.58;13.60;;;;;;;2.36;86.40;99084.75;4139343;28;20596;-93
2023/02/16 01:57:13;;;;;;;17.45;12.90;;;;;;;2.34;85.76;99095.09;4141361;28;20213;-94
2023/02/16 01:59:24;;;;;;;21.20;14.18;;;;;;;2.32;86.15;99090.88;4158774;28;20212;-93
2023/02/16 02:01:47;;;;;;;20.38;15.55;;;;;;;2.34;86.22;99092.50;4140051;28;20215;-93
2023/02/16 02:06:12;;;;;;;22.35;16.38;;;;;;;2.16;86.11;99089.47;4122562;28;20678;-93
2023/02/16 02:08:21;;;;;;;23.35;14.95;;;;;;;2.14;85.50;99083.50;4128980;28;20218;-94
2023/02/16 02:10:29;;;;;;;18.65;14.23;;;;;;;2.08;84.94;99075.06;4125118;28;20331;-93
2023/02/16 02:12:39;;;;;;;16.73;13.02;;;;;;;2.02;84.55;99085.47;4123109;28;20235;-93
2023/02/16 02:14:42;;;;;;;20.42;13.48;;;;;;;1.99;84.45;99078.66;4125669;28;20743;-94
2023/02/16 02:16:53;;;;;;;17.08;12.73;;;;;;;1.96;84.26;99078.72;4128159;28;20302;-93
2023/02/16 02:18:57;;;;;;;20.33;13.50;;;;;;;1.96;84.46;99076.16;4146263;28;20217;-93
2023/02/16 02:23:49;;;;;;;21.83;14.18;;;;;;;1.95;84.80;99077.00;4143421;28;20728;-93
2023/02/16 02:26:41;;;;;;;17.98;13.20;;;;;;;1.98;84.75;99068.41;4162533;28;20206;-93
2023/02/16 02:28:52;;;;;;;18.48;13.43;;;;;;;1.98;85.50;99078.69;4160358;28;20241;-93
2023/02/16 02:31:00;;;;;;;23.80;13.27;;;;;;;1.97;85.92;99066.69;4162128;28;20195;-94
2023/02/16 02:33:24;;;;;;;20.20;13.95;;;;;;;1.96;85.92;99070.16;4158763;28;20293;-93
2023/02/16 02:35:35;;;;;;;20.75;13.25;;;;;;;1.97;86.35;99074.41;4143471;28;20215;-93
2023/02/16 02:37:44;;;;;;;18.83;13.48;;;;;;;1.94;85.78;99064.22;4143831;28;20215;-94
2023/02/16 02:39:58;;;;;;;20.38;13.15;;;;;;;1.93;86.26;99065.91;4124839;28;20209;-94
2023/02/16 02:42:05;;;;;;;19.17;13.32;;;;;;;1.94;85.53;99067.63;4123942;28;20235;-94
2023/02/16 02:44:20;;;;;;;19.42;12.90;;;;;;;1.95;86.09;99071.88;4126148;28;20665;-93
2023/02/16 02:46:27;;;;;;;18.30;12.90;;;;;;;1.91;85.87;99061.69;4128373;28;20761;-93
2023/02/16 02:48:31;;;;;;;21.38;13.15;;;;;;;1.92;85.59;99064.25;4127976;28;20219;-93
2023/02/16 02:50:39;;;;;;;17.25;12.60;;;;;;;1.92;85.78;99063.38;4152562;28;20310;-93
2023/02/16 02:52:42;;;;;;;19.70;12.27;;;;;;;1.92;85.86;99063.38;4138549;28;20214;-93
2023/02/16 03:02:09;;;;;;;18.63;12.10;;;;;;;1.87;86.28;99059.22;4126213;28;20629;-93
2023/02/16 03:04:13;;;;;;;20.75;13.32;;;;;;;1.86;86.30;99055.78;4159545;28;20259;-94
2023/02/16 03:06:20;;;;;;;17.40;12.40;;;;;;;1.89;85.97;99063.44;4123275;28;20208;-94
2023/02/16 03:08:25;;;;;;;22.20;12.25;;;;;;;1.84;86.17;99054.97;4146140;28;20207;-94
2023/02/16 03:12:50;;;;;;;18.98;13.48;;;;;;;1.85;85.97;99059.25;4140566;28;20224;-93
2023/02/16 03:14:59;;;;;;;18.38;12.05;;;;;;;1.79;85.20;99045.63;4140573;28;20703;-94
2023/02/16 03:31:17;;;;;;;18.67;12.30;;;;;;;1.74;86.61;99056.00;4139091;28;20229;-93
2023/02/16 03:33:21;;;;;;;20.13;13.95;;;;;;;1.75;86.50;99064.59;4139378;28;20577;-92
2023/02/16 03:35:24;;;;;;;20.63;12.77;;;;;;;1.73;86.42;99062.03;4160839;28;20538;-93
2023/02/16 03:37:28;;;;;;;16.05;11.73;;;;;;;1.68;86.12;99058.69;4161864;28;20237;-92
2023/02/16 03:40:26;;;;;;;15.40;11.50;;;;;;;1.70;86.05;99062.09;4160749;28;20302;-92
2023/02/16 03:41:56;;;;;;;20.48;12.05;;;;;;;1.68;85.77;99053.53;4126346;28;20212;-93
2023/02/16 03:43:59;;;;;;;20.25;11.88;;;;;;;1.68;86.23;99058.69;4160192;28;20632;-94
2023/02/16 03:46:03;;;;;;;18.02;12.60;;;;;;;1.66;85.76;99065.59;4137922;28;20277;-92
2023/02/16 03:48:08;;;;;;;24.75;12.57;;;;;;;1.69;86.09;99067.25;4143032;28;20624;-93
2023/02/16 03:50:11;;;;;;;16.75;11.73;;;;;;;1.69;86.05;99062.97;4141558;28;20273;-93
2023/02/16 03:52:14;;;;;;;18.98;12.63;;;;;;;1.67;85.62;99067.28;4140062;28;20219;-93
2023/02/16 03:54:17;;;;;;;21.65;12.20;;;;;;;1.63;86.25;99060.50;4143858;28;20203;-93
2023/02/16 03:56:21;;;;;;;18.13;12.70;;;;;;;1.64;85.87;99059.63;4140376;28;20696;-94
2023/02/16 03:58:25;;;;;;;19.15;12.15;;;;;;;1.66;86.15;99064.75;4145111;28;20215;-92
2023/02/16 04:00:28;;;;;;;19.17;12.80;;;;;;;1.70;86.25;99069.81;4138517;28;20203;-93
2023/02/16 04:02:31;;;;;;;21.17;12.88;;;;;;;1.69;85.81;99069.84;4144748;28;20207;-94
2023/02/16 04:04:35;;;;;;;17.80;11.90;;;;;;;1.65;86.20;99074.16;4145923;28;20203;-93
2023/02/16 04:06:39;;;;;;;16.77;12.30;;;;;;;1.63;86.14;99069.94;4153371;28;20203;-94
2023/02/16 04:08:42;;;;;;;18.35;12.75;;;;;;;1.63;86.31;99075.91;4135140;28;21634;-93
2023/02/16 04:10:45;;;;;;;18.73;11.93;;;;;;;1.60;85.61;99075.97;4143712;28;20674;-93
2023/02/16 04:12:48;;;;;;;17.25;12.02;;;;;;;1.61;85.56;99076.81;4143636;28;20246;-93
2023/02/16 04:14:51;;;;;;;17.65;13.00;;;;;;;1.62;85.79;99079.34;4140747;28;20632;-95
2023/02/16 04:16:54;;;;;;;20.42;13.02;;;;;;;1.62;86.37;99081.91;4144269;28;20238;-94
2023/02/16 04:18:58;;;;;;;21.55;12.45;;;;;;;1.59;86.47;99081.97;4160006;28;20230;-94
2023/02/16 04:21:02;;;;;;;18.33;13.10;;;;;;;1.60;86.21;99080.28;4126861;28;20204;-93
2023/02/16 04:23:06;;;;;;;17.90;11.88;;;;;;;1.50;85.57;99087.31;4146461;28;20232;-92
2023/02/16 04:25:09;;;;;;;18.95;12.30;;;;;;;1.50;85.38;99089.00;4139322;28;20235;-94
2023/02/16 04:27:12;;;;;;;21.98;12.25;;;;;;;1.48;84.97;99080.47;4141906;28;20207;-94
2023/02/16 04:29:15;;;;;;;19.55;12.65;;;;;;;1.45;84.98;99081.38;4144930;28;20230;-94
2023/02/16 04:31:18;;;;;;;20.38;13.02;;;;;;;1.41;84.85;99084.88;4128378;28;20669;-93
2023/02/16 04:33:22;;;;;;;17.02;12.40;;;;;;;1.42;84.71;99078.84;4144130;28;20361;-94
2023/02/16 04:35:25;;;;;;;19.10;12.35;;;;;;;1.42;85.08;99091.69;4125219;28;20223;-92
2023/02/16 04:37:29;;;;;;;19.88;12.95;;;;;;;1.45;85.01;99094.22;4141121;28;20203;-92
2023/02/16 04:39:33;;;;;;;17.10;11.77;;;;;;;1.43;86.13;99084.84;4122777;28;20220;-92
2023/02/16 04:41:36;;;;;;;17.00;11.27;;;;;;;1.41;86.09;99081.44;4140966;28;20226;-93
2023/02/16 04:43:39;;;;;;;16.48;11.40;;;;;;;1.40;85.79;99085.75;4157867;28;20590;-93
2023/02/16 04:45:43;;;;;;;19.63;12.30;;;;;;;1.44;86.39;99079.69;4136412;28;20761;-93
2023/02/16 04:47:46;;;;;;;15.80;10.68;;;;;;;1.47;86.75;99084.78;4141791;28;20203;-93
2023/02/16 04:49:49;;;;;;;18.17;12.02;;;;;;;1.51;86.72;99081.25;4142326;28;20199;-93
2023/02/16 04:51:52;;;;;;;17.88;12.00;;;;;;;1.51;86.44;99078.69;4158268;28;20230;-94
2023/02/16 04:53:57;;;;;;;17.63;11.68;;;;;;;1.54;86.99;99075.25;4141525;28;20231;-92
2023/02/16 04:56:00;;;;;;;16.83;11.70;;;;;;;1.57;86.61;99081.16;4138757;28;20298;-93
2023/02/16 04:58:03;;;;;;;18.27;11.90;;;;;;;1.56;86.24;99078.63;4139182;28;20331;-93
2023/02/16 05:00:08;;;;;;;19.10;12.23;;;;;;;1.52;86.50;99082.13;4128182;28;20814;-93
2023/02/16 05:02:11;;;;;;;17.77;11.75;;;;;;;1.56;86.66;99082.03;4140774;28;20204;-94
2023/02/16 05:04:15;;;;;;;17.23;11.45;;;;;;;1.54;86.22;99078.66;4142011;28;20200;-94
2023/02/16 05:06:18;;;;;;;19.70;11.98;;;;;;;1.53;86.13;99092.38;4139383;28;20207;-94
2023/02/16 05:08:22;;;;;;;21.65;12.65;;;;;;;1.49;85.49;99071.91;4140968;28;20668;-93
2023/02/16 05:10:26;;;;;;;20.25;11.73;;;;;;;1.47;85.76;99084.78;4123866;28;20805;-93
2023/02/16 05:14:49;;;;;;;16.80;12.23;;;;;;;1.45;85.38;99081.38;4126359;28;20224;-94
2023/02/16 05:16:52;;;;;;;19.02;11.23;;;;;;;1.45;85.13;99080.53;4141132;28;20218;-94
2023/02/16 05:18:56;;;;;;;18.90;11.82;;;;;;;1.45;85.43;99083.94;4161988;28;20309;-93
2023/02/16 05:23:21;;;;;;;18.10;12.68;;;;;;;1.44;85.92;99082.25;4159876;28;20221;-94
2023/02/16 05:25:26;;;;;;;20.77;12.82;;;;;;;1.39;85.76;99076.34;4141949;28;20692;-94
2023/02/16 05:27:30;;;;;;;19.25;13.00;;;;;;;1.39;86.41;99072.94;4144858;28;20527;-93
2023/02/16 05:29:34;;;;;;;20.95;12.52;;;;;;;1.39;86.34;99086.59;4144669;28;20216;-93
2023/02/16 05:31:37;;;;;;;19.48;12.90;;;;;;;1.39;85.91;99090.06;4129482;28;20226;-94
2023/02/16 05:33:40;;;;;;;20.30;12.43;;;;;;;1.36;86.26;99079.84;4126361;28;20205;-93
2023/02/16 05:35:44;;;;;;;20.00;12.45;;;;;;;1.34;85.46;99086.72;4140512;28;20219;-93
2023/02/16 05:37:47;;;;;;;20.63;13.43;;;;;;;1.31;85.71;99086.75;4127789;28;20200;-93
2023/02/16 05:39:51;;;;;;;16.30;12.57;;;;;;;1.31;85.36;99085.06;4144781;28;20227;-93
2023/02/16 05:41:56;;;;;;;20.65;13.00;;;;;;;1.33;85.11;99077.31;4149446;28;20235;-93
2023/02/16 05:44:02;;;;;;;21.73;14.05;;;;;;;1.36;84.93;99084.97;4128497;28;20222;-92
2023/02/16 05:46:08;;;;;;;22.92;13.88;;;;;;;1.35;84.85;99078.97;4158397;28;20214;-93
2023/02/16 05:48:12;;;;;;;22.00;13.75;;;;;;;1.37;85.64;99087.53;4159512;28;20226;-93
2023/02/16 05:50:15;;;;;;;21.77;13.82;;;;;;;1.35;85.94;99088.41;4147021;28;20712;-93
2023/02/16 05:52:20;;;;;;;22.88;14.70;;;;;;;1.38;85.77;99096.91;4163363;28;20917;-93
2023/02/16 05:54:23;;;;;;;19.05;14.13;;;;;;;1.38;86.57;99104.63;4143077;28;20496;-92
2023/02/16 05:56:28;;;;;;;20.38;14.00;;;;;;;1.39;86.30;99113.19;4154337;28;20233;-91
2023/02/16 05:58:33;;;;;;;21.10;14.10;;;;;;;1.38;86.54;99111.47;4142439;28;20208;-92
2023/02/16 06:00:37;;;;;;;23.23;14.75;;;;;;;1.34;86.06;99109.81;4136928;28;20270;-91
2023/02/16 06:02:40;;;;;;;24.30;14.32;;;;;;;1.36;85.91;99110.66;4142174;28;20620;-92
2023/02/16 06:04:43;;;;;;;21.58;13.65;;;;;;;1.36;86.01;99105.53;4135693;28;20326;-91
2023/02/16 06:06:46;;;;;;;21.33;13.45;;;;;;;1.35;86.23;99108.97;4124339;28;20208;-93
2023/02/16 06:08:49;;;;;;;20.75;13.63;;;;;;;1.37;86.01;99118.34;4141368;28;20304;-92
2023/02/16 06:10:53;;;;;;;21.70;14.20;;;;;;;1.34;85.81;99123.53;4160740;28;20210;-92
2023/02/16 06:12:57;;;;;;;20.88;13.57;;;;;;;1.33;85.66;99113.28;4144805;28;20211;-92
2023/02/16 06:15:02;;;;;;;21.30;13.10;;;;;;;1.33;85.24;99116.69;4144379;28;20232;-91
2023/02/16 06:17:05;;;;;;;21.45;13.45;;;;;;;1.31;85.26;99126.16;4127866;28;20637;-91
2023/02/16 06:19:09;;;;;;;19.10;12.90;;;;;;;1.29;85.07;99120.16;4139109;28;20242;-92
2023/02/16 06:21:12;;;;;;;20.80;12.77;;;;;;;1.24;84.60;99123.69;4144377;28;20239;-92
2023/02/16 06:23:15;;;;;;;23.02;13.70;;;;;;;1.21;84.63;99128.88;4142516;28;20219;-92
2023/02/16 06:25:19;;;;;;;18.25;12.77;;;;;;;1.23;84.83;99139.97;4141536;28;20207;-90
2023/02/16 06:27:23;;;;;;;19.38;13.40;;;;;;;1.24;85.46;99139.13;4142710;28;20212;-91
2023/02/16 06:29:26;;;;;;;22.27;13.68;;;;;;;1.25;85.90;99138.22;4144316;28;20215;-92
2023/02/16 06:31:31;;;;;;;19.73;13.70;;;;;;;1.28;85.93;99133.91;4139219;28;20592;-94
2023/02/16 06:33:38;;;;;;;19.05;13.25;;;;;;;1.32;86.11;99137.28;4124983;28;20204;-93
2023/02/16 06:35:41;;;;;;;19.35;12.93;;;;;;;1.34;86.10;99132.94;4137555;28;20724;-92
2023/02/16 06:37:44;;;;;;;21.45;13.57;;;;;;;1.36;86.12;99137.19;4140872;28;20619;-93
2023/02/16 06:39:47;;;;;;;22.70;14.38;;;;;;;1.39;86.53;99131.19;4140079;28;20270;-94
2023/02/16 06:41:51;;;;;;;20.90;13.65;;;;;;;1.39;86.55;99126.03;4159090;28;20258;-91
2023/02/16 06:43:54;;;;;;;18.88;13.70;;;;;;;1.39;87.00;99132.00;4143472;28;20290;-93
2023/02/16 06:45:57;;;;;;;21.60;13.35;;;;;;;1.42;86.46;99137.94;4159573;28;20207;-93
2023/02/16 06:48:01;;;;;;;26.73;14.68;;;;;;;1.39;85.73;99137.97;4136907;28;20685;-89
2023/02/16 06:50:08;;;;;;;59.63;33.00;;;;;;;1.28;84.04;99128.78;4139010;28;20250;-90
2023/02/16 06:52:11;;;;;;;126.20;67.57;;;;;;;1.26;84.20;99133.06;4155213;28;20223;-93
2023/02/16 06:54:15;;;;;;;30.73;19.52;;;;;;;1.37;84.40;99136.34;4140481;28;20199;-89
2023/02/16 06:56:18;;;;;;;21.17;14.75;;;;;;;1.42;85.55;99137.09;4159109;28;20199;-93
2023/02/16 06:58:22;;;;;;;22.17;14.55;;;;;;;1.46;85.42;99139.59;4144190;28;20218;-93
2023/02/16 07:00:26;;;;;;;22.33;13.70;;;;;;;1.52;85.74;99141.22;4160234;28;20234;-90
2023/02/16 07:02:30;;;;;;;23.75;15.57;;;;;;;1.54;85.67;99148.03;4162738;28;20211;-91
2023/02/16 07:04:34;;;;;;;24.92;15.35;;;;;;;1.55;86.08;99139.44;4125501;28;20201;-90
2023/02/16 07:06:37;;;;;;;24.83;17.02;;;;;;;1.54;86.06;99142.88;4157295;28;20211;-90
2023/02/16 07:08:41;;;;;;;27.35;15.60;;;;;;;1.55;86.02;99154.88;4142467;28;20200;-90
2023/02/16 07:10:44;;;;;;;22.55;15.50;;;;;;;1.55;86.43;99154.03;4159646;28;20222;-90
2023/02/16 07:12:52;;;;;;;19.55;14.07;;;;;;;1.55;86.32;99160.00;4144267;28;20632;-90
2023/02/16 07:14:55;;;;;;;22.58;15.02;;;;;;;1.59;86.20;99159.06;4141969;28;20305;-91
2023/02/16 07:17:03;;;;;;;19.13;13.90;;;;;;;1.64;86.10;99165.00;4142190;28;20298;-90
2023/02/16 07:19:06;;;;;;;19.92;14.43;;;;;;;1.74;86.10;99160.56;4142996;28;20215;-90
2023/02/16 07:21:10;;;;;;;19.90;14.27;;;;;;;1.81;85.84;99163.00;4125021;28;20232;-90
2023/02/16 07:23:13;;;;;;;24.67;15.30;;;;;;;1.98;86.00;99166.13;4143405;28;20200;-90
2023/02/16 07:25:17;;;;;;;18.30;14.07;;;;;;;2.14;85.42;99162.41;4124191;28;20201;-89
2023/02/16 07:27:20;;;;;;;19.83;13.98;;;;;;;2.30;85.51;99168.97;4141046;28;20203;-91
2023/02/16 07:29:23;;;;;;;26.52;16.58;;;;;;;2.46;85.40;99166.91;4137812;28;20215;-91
2023/02/16 07:31:26;;;;;;;23.08;16.10;;;;;;;2.62;84.79;99181.19;4151953;28;20600;-89
2023/02/16 07:33:30;;;;;;;32.55;21.02;;;;;;;2.73;84.17;99181.81;4136855;28;20231;-91
2023/02/16 07:35:33;;;;;;;26.20;18.25;;;;;;;2.75;84.17;99184.34;4140918;28;20250;-90
2023/02/16 07:37:37;;;;;;;24.27;17.23;;;;;;;2.65;84.63;99178.53;4129194;28;20215;-90
2023/02/16 07:39:40;;;;;;;27.63;16.35;;;;;;;2.59;84.41;99181.25;4141012;28;20230;-90
2023/02/16 07:41:43;;;;;;;22.45;16.05;;;;;;;2.66;85.04;99187.09;4158012;28;20203;-89
2023/02/16 07:43:52;;;;;;;23.52;16.05;;;;;;;2.78;85.18;99185.13;4125742;28;20238;-90
2023/02/16 07:45:56;;;;;;;20.63;15.27;;;;;;;2.91;84.58;99186.59;4144604;28;20199;-91
2023/02/16 07:47:59;;;;;;;22.70;16.42;;;;;;;3.14;85.04;99184.38;4144473;28;20230;-90
2023/02/16 07:50:03;;;;;;;25.88;16.75;;;;;;;3.37;84.98;99183.00;4139833;28;20219;-90
2023/02/16 07:52:06;;;;;;;20.75;15.65;;;;;;;3.56;84.36;99185.09;4145245;28;20208;-89
2023/02/16 07:54:10;;;;;;;20.80;16.08;;;;;;;3.75;84.28;99191.53;4125838;28;20246;-91
2023/02/16 07:56:19;;;;;;;26.17;18.55;;;;;;;3.96;83.18;99189.25;4136972;28;21355;-91
2023/02/16 07:58:28;;;;;;;25.13;17.90;;;;;;;4.15;82.79;99192.22;4137434;28;20200;-91
2023/02/16 08:00:31;;;;;;;25.83;17.20;;;;;;;4.31;81.58;99197.78;4154061;28;20221;-90
2023/02/16 08:02:34;;;;;;;20.73;15.52;;;;;;;4.46;81.10;99199.13;4138714;28;20195;-89
2023/02/16 08:04:38;;;;;;;25.27;16.45;;;;;;;4.58;82.06;99214.31;4124412;28;20216;-91
2023/02/16 08:06:41;;;;;;;23.25;16.55;;;;;;;4.72;81.32;99215.59;4141269;28;20254;-91
2023/02/16 08:08:44;;;;;;;21.55;15.73;;;;;;;4.82;79.78;99228.22;4158381;28;20663;-91
2023/02/16 08:10:49;;;;;;;23.08;16.15;;;;;;;4.84;78.85;99218.72;4158010;28;20253;-92
2023/02/16 08:12:52;;;;;;;24.52;16.58;;;;;;;4.95;80.01;99218.44;4124798;28;20235;-90
2023/02/16 08:14:55;;;;;;;35.70;24.52;;;;;;;4.97;79.54;99229.56;4144063;28;20220;-90
2023/02/16 08:16:58;;;;;;;45.42;31.95;;;;;;;5.00;78.84;99219.13;4140391;28;20210;-90
2023/02/16 08:19:03;;;;;;;28.10;18.35;;;;;;;5.15;79.11;99224.72;4128159;28;20507;-90
2023/02/16 08:21:12;;;;;;;24.48;19.00;;;;;;;5.32;79.34;99228.50;4140398;28;20709;-90
2023/02/16 08:23:15;;;;;;;27.10;18.30;;;;;;;5.43;79.12;99226.44;4158425;28;20203;-90
2023/02/16 08:25:18;;;;;;;28.77;18.88;;;;;;;5.50;78.36;99225.34;4138662;28;20207;-90
2023/02/16 08:27:23;;;;;;;23.77;17.25;;;;;;;5.62;78.97;99223.25;4139626;28;20216;-90
2023/02/16 08:29:26;;;;;;;24.00;16.77;;;;;;;5.77;79.42;99222.81;4153781;28;20706;-90
2023/02/16 08:31:33;;;;;;;23.80;16.30;;;;;;;5.90;80.52;99229.28;4126667;28;20235;-90
2023/02/16 08:33:36;;;;;;;23.80;17.00;;;;;;;6.06;80.90;99229.63;4141302;28;20227;-90
2023/02/16 08:35:40;;;;;;;23.20;15.88;;;;;;;6.19;80.88;99232.66;4128230;28;20276;-91
2023/02/16 08:37:43;;;;;;;22.98;16.42;;;;;;;6.31;79.81;99229.63;4125232;28;20207;-91
2023/02/16 08:39:47;;;;;;;23.50;16.95;;;;;;;6.39;79.93;99227.63;4126957;28;20212;-91
2023/02/16 08:41:51;;;;;;;23.50;16.42;;;;;;;6.52;80.93;99225.47;4123589;28;20302;-91
2023/02/16 08:43:56;;;;;;;25.23;17.15;;;;;;;6.67;80.34;99230.97;4134731;28;20605;-93
2023/02/16 08:45:59;;;;;;;26.67;18.58;;;;;;;6.74;79.84;99228.09;4154941;28;20210;-90
2023/02/16 08:48:02;;;;;;;24.95;17.77;;;;;;;6.87;78.52;99234.56;4140329;28;20532;-90
2023/02/16 08:50:07;;;;;;;26.10;17.73;;;;;;;7.00;78.34;99229.78;4122874;28;20615;-90
2023/02/16 08:52:11;;;;;;;25.23;17.90;;;;;;;7.11;78.37;99236.25;4135219;28;20200;-90
2023/02/16 08:54:16;;;;;;;23.67;17.90;;;;;;;7.25;77.67;99234.03;4138256;28;20223;-90
2023/02/16 08:56:20;;;;;;;24.13;17.85;;;;;;;7.32;78.94;99235.47;4139212;28;21656;-91
2023/02/16 08:58:23;;;;;;;24.25;17.50;;;;;;;7.40;78.19;99223.09;4157269;28;20213;-91
2023/02/16 09:00:34;;;;;;;23.20;17.42;;;;;;;7.52;79.38;99239.03;4122374;28;20829;-90
2023/02/16 09:02:37;;;;;;;24.90;18.17;;;;;;;7.58;79.71;99231.84;4139462;28;20283;-90
2023/02/16 09:04:41;;;;;;;22.80;17.20;;;;;;;7.68;78.79;99225.41;4117364;28;20666;-90
2023/02/16 09:06:45;;;;;;;27.83;18.45;;;;;;;7.81;78.50;99225.75;4144172;28;20211;-90
2023/02/16 09:08:51;;;;;;;26.65;18.95;;;;;;;7.94;76.87;99225.22;4159417;28;20214;-88
2023/02/16 09:10:54;;;;;;;25.13;17.70;;;;;;;8.03;77.64;99222.25;4140442;28;20276;-90
2023/02/16 09:12:58;;;;;;;36.58;22.60;;;;;;;8.12;77.39;99227.13;4124257;28;21111;-89
2023/02/16 09:15:01;;;;;;;26.17;17.85;;;;;;;8.23;77.04;99222.31;4124889;28;20231;-90
2023/02/16 09:17:06;;;;;;;20.88;17.10;;;;;;;8.37;75.74;99226.03;4139980;28;20215;-89
2023/02/16 09:19:10;;;;;;;21.00;16.25;;;;;;;8.36;74.13;99221.75;4158024;28;20210;-89
2023/02/16 09:21:14;;;;;;;20.30;16.85;;;;;;;8.36;74.50;99220.91;4155038;28;20613;-89
2023/02/16 09:23:17;;;;;;;19.60;15.48;;;;;;;8.41;75.77;99222.41;4139290;28;20238;-90
2023/02/16 09:25:21;;;;;;;24.20;16.60;;;;;;;8.45;75.83;99219.63;4144562;28;20280;-89
2023/02/16 09:27:24;;;;;;;22.33;15.85;;;;;;;8.46;74.84;99223.91;4140620;28;20210;-88
2023/02/16 09:29:27;;;;;;;22.05;15.02;;;;;;;8.47;76.50;99225.59;4160282;28;20208;-90
2023/02/16 09:31:33;;;;;;;20.42;14.88;;;;;;;8.56;76.01;99226.97;4157403;28;20211;-90
2023/02/16 09:33:37;;;;;;;20.08;15.75;;;;;;;8.66;75.89;99223.91;4129776;28;20251;-90
2023/02/16 09:35:41;;;;;;;20.05;14.20;;;;;;;8.86;76.85;99236.91;4123747;28;20255;-90
2023/02/16 09:37:44;;;;;;;15.80;12.75;;;;;;;9.02;75.89;99237.91;4161782;28;20748;-90
2023/02/16 09:39:47;;;;;;;18.25;13.68;;;;;;;9.17;76.43;99242.44;4143606;28;20263;-90
2023/02/16 09:42:00;;;;;;;21.02;14.73;;;;;;;9.25;74.27;99241.19;4149961;28;20257;-90
2023/02/16 09:44:13;;;;;;;17.75;13.57;;;;;;;9.35;73.61;99237.28;4154436;28;20210;-90
2023/02/16 09:46:20;;;;;;;26.85;18.23;;;;;;;9.39;72.64;99234.44;4140019;28;20679;-90
2023/02/16 09:48:31;;;;;;;17.92;13.00;;;;;;;9.40;72.69;99243.13;4159819;28;20714;-89
2023/02/16 09:50:35;;;;;;;18.25;13.38;;;;;;;9.56;74.15;99241.47;4118188;28;20241;-90
2023/02/16 09:52:59;;;;;;;18.83;14.48;;;;;;;9.80;74.00;99242.97;4143442;28;20200;-91
2023/02/16 09:55:06;;;;;;;16.00;13.57;;;;;;;9.88;71.83;99245.13;4127400;28;20255;-92
2023/02/16 09:57:14;;;;;;;24.02;18.02;;;;;;;9.99;72.42;99232.47;4124691;28;20215;-92
2023/02/16 09:59:27;;;;;;;20.92;15.68;;;;;;;10.14;72.92;99236.94;4129096;28;20219;-92
2023/02/16 10:01:35;;;;;;;18.10;14.45;;;;;;;10.32;72.26;99241.28;4143450;28;20209;-91
2023/02/16 10:03:50;;;;;;;20.05;15.05;;;;;;;10.49;72.84;99243.88;4143590;28;20199;-91
2023/02/16 10:06:00;;;;;;;17.85;13.60;;;;;;;10.63;72.35;99238.81;4130859;28;20769;-92
2023/02/16 10:08:07;;;;;;;18.65;14.57;;;;;;;10.76;72.82;99242.50;4160494;28;20210;-91
2023/02/16 10:10:14;;;;;;;19.42;14.85;;;;;;;10.93;72.38;99240.72;4146537;28;20706;-92
2023/02/16 10:12:19;;;;;;;17.85;14.27;;;;;;;11.06;72.77;99240.00;4139727;28;20222;-91
2023/02/16 10:14:29;;;;;;;19.15;14.80;;;;;;;11.20;71.74;99242.75;4140643;28;20318;-91
2023/02/16 10:16:37;;;;;;;22.60;16.52;;;;;;;11.29;71.74;99248.34;4160897;28;20242;-91
2023/02/16 10:18:43;;;;;;;21.03;15.27;;;;;;;11.35;68.50;99250.63;4158105;28;20301;-92
2023/02/16 10:20:51;;;;;;;19.07;14.63;;;;;;;11.44;68.55;99241.44;4161425;28;20679;-94
2023/02/16 10:23:02;;;;;;;21.67;15.90;;;;;;;11.50;66.21;99243.75;4138186;28;20638;-93
2023/02/16 10:25:11;;;;;;;19.67;14.23;;;;;;;11.60;67.16;99245.78;4157470;28;20660;-92